Aérodrome :
LOGIN :

S'inscrire | Disclaimer

   EN    FR    IT 

 










Légende :    VFR   VFR Marginal   IFR   IFR Intensif   IFR Très Intensif
Visi : 
Plafond : 
>= 8 km
>= 3000ft
5 à 8 km
1000 à 3000 ft
1500m à 5 km
500 à 1000 ft
800 à 1500m
200 à 500 ft
< 800m
< 200 ft
Symboles :   Orages  Brouillard  Fortes neiges  Fortes précipitations  Vent > 20 kt
SIGMETs :   Divers  Orages  Givrage  Turbulence  Onde Orograph.  Cendres Volcan.






- Altitude de l'aérodrome : 348 ft
- Code IATA : STN


EGSS - London Stansted

DERNIER METAR :
  • 220550Z AUTO 22008KT 9999 NCD M02/M03 Q0989

METARs EXPIRÉS :
  • 220520Z AUTO 23008KT 9999 NCD M02/M02 Q0989
  • 220450Z AUTO 23006KT 9000 NCD M02/M02 Q0989
  • 220420Z AUTO 24005KT 9999 NCD M01/M01 Q0989
  • 220350Z AUTO 23007KT 9999 NCD M01/M02 Q0988
  • 220320Z AUTO 23006KT 9999 NCD M01/M02 Q0988

TAF TAF EGSS
Valide du 22 à 06h jusqu'au 23 à 12h UTC


220505Z 2206/2312 24006KT 9999 FEW030
TEMPO 2206/2210 8000
PROB30 2206/2209 4000 BR
PROB30
TEMPO 2219/2223 6000 SHRA -SHRASN BKN009
PROB40 2302/2310 2500 BR BKN003
PROB40
TEMPO 2310/2312 6000 BKN008
ATIS : +44 1279 669 325



MET'MAP, la Météo Aéronautique d'un coup d'oeil ! - Copyright ORBIFLY Décembre 2007 - Disclaimer

ORBIFLY MET'MAP TEAM :

Programmation & Développement : Alexandra Zaïnal
Sur une idée originale de : Baudouin d'Aumeries
Assistance à la programmation : Marc-Olivier Méhu
Soutien technique & logistique : Manuel Goepfert

Contact : metmap@orbifly.com




SOURCES & CREDITS :

   NOAA